createdAt,value
2023-03-19T01:37:00.340Z,84.3
2023-03-19T01:42:51.349Z,83.9
2023-03-19T01:48:43.310Z,83.3
2023-03-19T01:54:34.233Z,84.3
2023-03-19T02:00:25.739Z,85
2023-03-19T02:06:17.003Z,85.2
2023-03-19T02:12:08.728Z,84.3
2023-03-19T02:17:59.799Z,85.6
2023-03-19T02:23:52.115Z,84.5
2023-03-19T02:29:43.522Z,84.7
2023-03-19T02:35:37.473Z,84.5
2023-03-19T02:41:28.698Z,84.4
2023-03-19T02:47:20.003Z,84.5
2023-03-19T02:53:10.698Z,85.2
2023-03-19T02:59:02.088Z,84.4
2023-03-19T03:04:53.066Z,85.2
2023-03-19T03:10:44.538Z,85.1
2023-03-19T03:16:35.555Z,84.8
2023-03-19T03:22:29.001Z,84.6
2023-03-19T03:28:19.906Z,86
2023-03-19T03:34:11.187Z,84.9
2023-03-19T03:40:02.491Z,84.7
2023-03-19T03:45:52.532Z,84.4
2023-03-19T03:51:43.567Z,84.6
2023-03-19T03:57:35.210Z,84.7
2023-03-19T04:03:26.759Z,84.2
2023-03-19T04:09:18.835Z,83.9
2023-03-19T04:15:09.818Z,83.8
2023-03-19T04:21:01.320Z,84.3
2023-03-19T04:26:53.094Z,85.3
2023-03-19T04:32:45.456Z,84.7
2023-03-19T04:38:37.413Z,84.6
2023-03-19T04:44:29.096Z,85.1
2023-03-19T04:50:20.454Z,84.8
2023-03-19T04:56:11.804Z,85.6
2023-03-19T05:02:03.388Z,86.6
2023-03-19T05:07:53.958Z,87.4
2023-03-19T05:13:46.799Z,87.2
2023-03-19T05:19:37.929Z,86.6
2023-03-19T05:25:28.958Z,86.5
2023-03-19T05:31:20.662Z,86.2
2023-03-19T05:37:12.964Z,86.3
2023-03-19T05:43:04.939Z,86.3
2023-03-19T05:48:55.669Z,87.6
2023-03-19T05:54:46.886Z,88.9
2023-03-19T06:00:38.385Z,87.4
2023-03-19T06:06:29.132Z,89.1
2023-03-19T06:12:19.595Z,88.1
2023-03-19T06:18:10.832Z,88.3
2023-03-19T06:24:02.797Z,87.5
2023-03-19T06:29:53.832Z,88.2
2023-03-19T06:35:44.980Z,89.6
2023-03-19T06:41:36.189Z,90.9
2023-03-19T06:47:27.705Z,90
2023-03-19T06:53:19.567Z,89.2
2023-03-19T06:59:11.728Z,88.4
2023-03-19T07:05:03.786Z,87.7
2023-03-19T07:10:54.552Z,88.9
2023-03-19T07:16:45.808Z,89.9
2023-03-19T07:22:37.722Z,88.8
2023-03-19T07:28:30.798Z,88.8
2023-03-19T07:34:21.716Z,89.1
2023-03-19T07:40:13.279Z,89.1
2023-03-19T07:46:04.715Z,90
2023-03-19T07:51:54.567Z,91
2023-03-19T07:57:43.816Z,92.1
2023-03-19T08:03:36.458Z,92.3
2023-03-19T08:09:28.297Z,91.6
2023-03-19T08:15:20.011Z,91.2
2023-03-19T08:21:12.923Z,92.9
2023-03-19T08:27:04.819Z,94.1
2023-03-19T08:32:57.373Z,93.1
2023-03-19T08:38:48.916Z,93
2023-03-19T08:44:40.864Z,93.2
2023-03-19T08:50:34.768Z,91.7
2023-03-19T08:56:27.840Z,91.9
2023-03-19T09:02:19.089Z,92.6
2023-03-19T09:08:10.050Z,94.5
2023-03-19T09:14:00.718Z,98.3
2023-03-19T09:19:52.485Z,100
2023-03-19T09:25:42.800Z,100
2023-03-19T09:31:34.322Z,100
2023-03-19T09:37:25.148Z,100
2023-03-19T09:43:16.776Z,100
2023-03-19T09:49:08.016Z,100
2023-03-19T09:54:58.907Z,100
2023-03-19T10:00:49.328Z,99.9
2023-03-19T10:06:39.755Z,99
2023-03-19T10:12:29.969Z,100
2023-03-19T10:18:21.268Z,99.5
2023-03-19T10:24:12.312Z,98.3
2023-03-19T10:30:02.903Z,97.2
2023-03-19T10:35:53.407Z,96.2
2023-03-19T10:41:44.221Z,95.7
2023-03-19T10:47:34.126Z,95.5
2023-03-19T10:53:25.427Z,94
2023-03-19T10:59:15.921Z,92.5
2023-03-19T11:05:06.215Z,91.2
2023-03-19T11:10:57.038Z,90.5
2023-03-19T11:16:48.221Z,89.5
2023-03-19T11:22:38.725Z,89.4
2023-03-19T11:29:39.146Z,90.3
2023-03-19T11:35:28.088Z,88.8
2023-03-19T11:41:20.427Z,91.8
2023-03-19T11:47:29.201Z,91.1
2023-03-19T11:53:17.998Z,88.8
2023-03-19T11:59:08.265Z,91.4
2023-03-19T12:04:59.114Z,90.5
2023-03-19T12:10:52.696Z,88.7
2023-03-19T12:16:50.459Z,88.1
2023-03-19T12:22:40.339Z,86.5
2023-03-19T12:28:30.854Z,86.6
2023-03-19T12:34:22.972Z,86.8
2023-03-19T12:40:16.922Z,88.9
2023-03-19T12:46:08.068Z,89.4
2023-03-19T12:51:58.736Z,88.5
2023-03-19T12:57:50.168Z,88.9
2023-03-19T13:03:41.494Z,89.4
2023-03-19T13:09:32.654Z,89.5
2023-03-19T13:15:23.785Z,89.2
2023-03-19T13:21:15.125Z,89.1
2023-03-19T13:27:06.030Z,88.6
2023-03-19T13:32:59.253Z,88.9
2023-03-19T13:38:50.088Z,87.8
2023-03-19T13:44:41.311Z,87.4
2023-03-19T13:50:32.747Z,87.1
2023-03-19T13:56:31.730Z,91.1
2023-03-19T14:02:22.317Z,90.4
2023-03-19T14:08:13.282Z,87.5
2023-03-19T14:14:04.963Z,87.9
2023-03-19T14:19:56.123Z,87.4
2023-03-19T14:25:55.089Z,86.3
2023-03-19T14:31:47.278Z,82.3
2023-03-19T14:37:38.866Z,79.4
2023-03-19T14:43:29.933Z,77.3
2023-03-19T14:49:24.106Z,76.7
2023-03-19T14:55:15.606Z,74.4
2023-03-19T15:01:07.060Z,72.6
2023-03-19T15:06:59.057Z,71.8
2023-03-19T15:12:53.210Z,69.8
2023-03-19T15:18:49.488Z,67.5
2023-03-19T15:24:44.843Z,66
2023-03-19T15:31:03.161Z,68.5
2023-03-19T15:37:48.840Z,69
2023-03-19T15:43:39.995Z,70.5
2023-03-19T15:49:30.748Z,70.4
2023-03-19T15:55:20.425Z,70.7
2023-03-19T16:01:15.654Z,69.5
2023-03-19T16:07:09.232Z,70.7
2023-03-19T16:13:00.880Z,70
2023-03-19T16:18:52.647Z,73.8
2023-03-19T16:24:45.995Z,74.5
2023-03-19T16:30:37.660Z,74.9
2023-03-19T16:36:27.865Z,74.9
2023-03-19T16:42:19.327Z,72.4
2023-03-19T16:48:11.462Z,73.8
2023-03-19T16:54:03.509Z,77.1
2023-03-19T16:59:55.924Z,79.6
2023-03-19T17:05:47.177Z,83.2
2023-03-19T17:11:39.020Z,80.6
2023-03-19T17:17:32.663Z,80.9
2023-03-19T17:23:24.249Z,84.9
2023-03-19T17:29:15.996Z,88.9
2023-03-19T17:41:16.879Z,95
2023-03-19T17:47:26.664Z,96.5
2023-03-19T17:53:43.104Z,97.4
2023-03-19T17:59:49.753Z,98
2023-03-19T18:05:44.859Z,98.8
2023-03-19T18:11:38.208Z,98.8
2023-03-19T18:17:33.738Z,99.4
2023-03-19T18:23:25.594Z,100
2023-03-19T18:29:17.202Z,100
2023-03-19T18:35:08.370Z,100
2023-03-19T18:40:59.606Z,100
2023-03-19T18:46:52.525Z,100
2023-03-19T18:52:42.139Z,100
2023-03-19T18:58:32.741Z,100
2023-03-19T19:04:22.211Z,100
2023-03-19T21:31:47.467Z,100
2023-03-19T21:50:44.195Z,100
2023-03-19T21:56:49.585Z,100
2023-03-19T22:08:33.130Z,100
2023-03-19T22:14:41.249Z,100
2023-03-19T22:20:46.509Z,100
2023-03-19T22:32:59.107Z,100
2023-03-19T22:38:58.755Z,100
2023-03-19T22:45:10.556Z,100
2023-03-19T22:57:27.473Z,100
2023-03-19T23:03:31.938Z,100
2023-03-19T23:09:26.925Z,100
2023-03-19T23:15:35.534Z,100
2023-03-19T23:33:54.851Z,100
2023-03-19T23:46:15.786Z,100
2023-03-19T23:58:37.007Z,100
